sensor_id;sensor_type;location;lat;lon;timestamp;temperature;humidity
23685;DHT22;12020;51.384;6.908;2023-02-15T00:01:08;4.00;99.90
23685;DHT22;12020;51.384;6.908;2023-02-15T00:03:34;4.00;99.90
23685;DHT22;12020;51.384;6.908;2023-02-15T00:05:59;4.00;99.90
23685;DHT22;12020;51.384;6.908;2023-02-15T00:08:26;3.80;99.90
23685;DHT22;12020;51.384;6.908;2023-02-15T00:10:51;3.80;99.90
23685;DHT22;12020;51.384;6.908;2023-02-15T00:13:17;3.90;99.90
23685;DHT22;12020;51.384;6.908;2023-02-15T00:15:42;3.90;99.90
23685;DHT22;12020;51.384;6.908;2023-02-15T00:18:08;3.90;99.90
23685;DHT22;12020;51.384;6.908;2023-02-15T00:20:34;3.90;99.90
23685;DHT22;12020;51.384;6.908;2023-02-15T00:22:59;3.90;99.90
23685;DHT22;12020;51.384;6.908;2023-02-15T00:25:25;4.00;99.90
23685;DHT22;12020;51.384;6.908;2023-02-15T00:27:50;3.90;99.90
23685;DHT22;12020;51.384;6.908;2023-02-15T00:30:16;3.90;99.90
23685;DHT22;12020;51.384;6.908;2023-02-15T00:32:41;3.80;99.90
23685;DHT22;12020;51.384;6.908;2023-02-15T00:35:07;3.80;99.90
23685;DHT22;12020;51.384;6.908;2023-02-15T00:37:33;3.80;99.90
23685;DHT22;12020;51.384;6.908;2023-02-15T00:39:59;3.70;99.90
23685;DHT22;12020;51.384;6.908;2023-02-15T00:42:24;3.70;99.90
23685;DHT22;12020;51.384;6.908;2023-02-15T00:44:50;3.70;99.90
23685;DHT22;12020;51.384;6.908;2023-02-15T00:47:16;3.60;99.90
23685;DHT22;12020;51.384;6.908;2023-02-15T00:49:41;3.60;99.90
23685;DHT22;12020;51.384;6.908;2023-02-15T00:52:08;3.60;99.90
23685;DHT22;12020;51.384;6.908;2023-02-15T00:54:33;3.50;99.90
23685;DHT22;12020;51.384;6.908;2023-02-15T00:57:00;3.50;99.90
23685;DHT22;12020;51.384;6.908;2023-02-15T00:59:25;3.50;99.90
23685;DHT22;12020;51.384;6.908;2023-02-15T01:01:51;3.50;99.90
23685;DHT22;12020;51.384;6.908;2023-02-15T01:04:16;3.50;99.90
23685;DHT22;12020;51.384;6.908;2023-02-15T01:06:42;3.50;99.90
23685;DHT22;12020;51.384;6.908;2023-02-15T01:09:07;3.50;99.90
23685;DHT22;12020;51.384;6.908;2023-02-15T01:11:33;3.60;99.90
23685;DHT22;12020;51.384;6.908;2023-02-15T01:13:58;3.60;99.90
23685;DHT22;12020;51.384;6.908;2023-02-15T01:16:25;3.70;99.90
23685;DHT22;12020;51.384;6.908;2023-02-15T01:18:51;3.60;99.90
23685;DHT22;12020;51.384;6.908;2023-02-15T01:21:20;3.60;99.90
23685;DHT22;12020;51.384;6.908;2023-02-15T01:23:47;3.60;99.90
23685;DHT22;12020;51.384;6.908;2023-02-15T01:26:13;3.70;99.90
23685;DHT22;12020;51.384;6.908;2023-02-15T01:28:39;3.70;99.90
23685;DHT22;12020;51.384;6.908;2023-02-15T01:31:08;3.60;99.90
23685;DHT22;12020;51.384;6.908;2023-02-15T01:33:34;3.60;99.90
23685;DHT22;12020;51.384;6.908;2023-02-15T01:36:00;3.60;99.90
23685;DHT22;12020;51.384;6.908;2023-02-15T01:38:25;3.60;99.90
23685;DHT22;12020;51.384;6.908;2023-02-15T01:40:51;3.70;99.90
23685;DHT22;12020;51.384;6.908;2023-02-15T01:43:18;3.70;99.90
23685;DHT22;12020;51.384;6.908;2023-02-15T01:45:46;3.80;99.90
23685;DHT22;12020;51.384;6.908;2023-02-15T01:48:22;3.80;99.90
23685;DHT22;12020;51.384;6.908;2023-02-15T01:50:54;3.80;99.90
23685;DHT22;12020;51.384;6.908;2023-02-15T01:53:29;3.80;99.90
23685;DHT22;12020;51.384;6.908;2023-02-15T01:56:15;4.10;99.90
23685;DHT22;12020;51.384;6.908;2023-02-15T01:58:42;3.80;99.90
23685;DHT22;12020;51.384;6.908;2023-02-15T02:01:08;3.80;99.90
23685;DHT22;12020;51.384;6.908;2023-02-15T02:06:16;3.80;99.90
23685;DHT22;12020;51.384;6.908;2023-02-15T02:08:42;3.80;99.90
23685;DHT22;12020;51.384;6.908;2023-02-15T02:11:12;3.70;99.90
23685;DHT22;12020;51.384;6.908;2023-02-15T02:13:43;3.80;99.90
23685;DHT22;12020;51.384;6.908;2023-02-15T02:24:31;3.70;99.90
23685;DHT22;12020;51.384;6.908;2023-02-15T02:28:16;3.50;99.90
23685;DHT22;12020;51.384;6.908;2023-02-15T02:36:06;3.70;99.90
23685;DHT22;12020;51.384;6.908;2023-02-15T02:41:33;3.70;99.90
23685;DHT22;12020;51.384;6.908;2023-02-15T02:44:16;3.80;99.90
23685;DHT22;12020;51.384;6.908;2023-02-15T02:47:01;3.70;99.90
23685;DHT22;12020;51.384;6.908;2023-02-15T02:49:37;3.70;99.90
23685;DHT22;12020;51.384;6.908;2023-02-15T02:52:07;3.80;99.90
23685;DHT22;12020;51.384;6.908;2023-02-15T02:54:51;3.70;99.90
23685;DHT22;12020;51.384;6.908;2023-02-15T02:57:18;3.70;99.90
23685;DHT22;12020;51.384;6.908;2023-02-15T02:59:46;3.70;99.90
23685;DHT22;12020;51.384;6.908;2023-02-15T03:02:34;3.70;99.90
23685;DHT22;12020;51.384;6.908;2023-02-15T03:05:06;3.70;99.90
23685;DHT22;12020;51.384;6.908;2023-02-15T03:07:34;3.60;99.90
23685;DHT22;12020;51.384;6.908;2023-02-15T03:10:04;3.60;99.90
23685;DHT22;12020;51.384;6.908;2023-02-15T03:12:38;3.60;99.90
23685;DHT22;12020;51.384;6.908;2023-02-15T03:15:08;3.60;99.90
23685;DHT22;12020;51.384;6.908;2023-02-15T03:17:39;3.60;99.90
23685;DHT22;12020;51.384;6.908;2023-02-15T03:20:18;3.70;99.90
23685;DHT22;12020;51.384;6.908;2023-02-15T03:22:53;3.60;99.90
23685;DHT22;12020;51.384;6.908;2023-02-15T03:25:23;3.70;99.90
23685;DHT22;12020;51.384;6.908;2023-02-15T03:27:58;3.70;99.90
23685;DHT22;12020;51.384;6.908;2023-02-15T03:30:28;3.60;99.90
23685;DHT22;12020;51.384;6.908;2023-02-15T03:32:54;3.70;99.90
23685;DHT22;12020;51.384;6.908;2023-02-15T03:35:24;3.70;99.90
23685;DHT22;12020;51.384;6.908;2023-02-15T03:37:58;3.80;99.90
23685;DHT22;12020;51.384;6.908;2023-02-15T03:40:36;3.80;99.90
23685;DHT22;12020;51.384;6.908;2023-02-15T03:48:44;3.80;99.90
23685;DHT22;12020;51.384;6.908;2023-02-15T03:51:16;3.80;99.90
23685;DHT22;12020;51.384;6.908;2023-02-15T03:54:10;3.70;99.90
23685;DHT22;12020;51.384;6.908;2023-02-15T03:56:41;3.70;99.90
23685;DHT22;12020;51.384;6.908;2023-02-15T03:59:07;3.70;99.90
23685;DHT22;12020;51.384;6.908;2023-02-15T04:04:37;3.70;99.90
23685;DHT22;12020;51.384;6.908;2023-02-15T04:07:06;3.70;99.90
23685;DHT22;12020;51.384;6.908;2023-02-15T04:09:32;3.60;99.90
23685;DHT22;12020;51.384;6.908;2023-02-15T04:12:16;3.70;99.90
23685;DHT22;12020;51.384;6.908;2023-02-15T04:14:42;3.60;99.90
23685;DHT22;12020;51.384;6.908;2023-02-15T04:17:26;3.70;99.90
23685;DHT22;12020;51.384;6.908;2023-02-15T04:19:52;3.70;99.90
23685;DHT22;12020;51.384;6.908;2023-02-15T04:22:36;3.70;99.90
23685;DHT22;12020;51.384;6.908;2023-02-15T04:25:20;3.90;99.90
23685;DHT22;12020;51.384;6.908;2023-02-15T04:27:51;3.80;99.90
23685;DHT22;12020;51.384;6.908;2023-02-15T04:30:19;3.80;99.90
23685;DHT22;12020;51.384;6.908;2023-02-15T04:32:45;3.80;99.90
23685;DHT22;12020;51.384;6.908;2023-02-15T04:35:12;3.80;99.90
23685;DHT22;12020;51.384;6.908;2023-02-15T04:37:39;3.90;99.90
23685;DHT22;12020;51.384;6.908;2023-02-15T04:40:06;3.80;99.90
23685;DHT22;12020;51.384;6.908;2023-02-15T04:42:32;3.80;99.90
23685;DHT22;12020;51.384;6.908;2023-02-15T04:44:57;3.80;99.90
23685;DHT22;12020;51.384;6.908;2023-02-15T04:47:23;3.80;99.90
23685;DHT22;12020;51.384;6.908;2023-02-15T04:49:49;3.80;99.90
23685;DHT22;12020;51.384;6.908;2023-02-15T04:52:20;3.70;99.90
23685;DHT22;12020;51.384;6.908;2023-02-15T04:54:46;3.70;99.90
23685;DHT22;12020;51.384;6.908;2023-02-15T04:57:12;3.70;99.90
23685;DHT22;12020;51.384;6.908;2023-02-15T04:59:38;3.60;99.90
23685;DHT22;12020;51.384;6.908;2023-02-15T05:02:03;3.60;99.90
23685;DHT22;12020;51.384;6.908;2023-02-15T05:04:29;3.70;99.90
23685;DHT22;12020;51.384;6.908;2023-02-15T05:06:56;3.70;99.90
23685;DHT22;12020;51.384;6.908;2023-02-15T05:09:21;3.70;99.90
23685;DHT22;12020;51.384;6.908;2023-02-15T05:11:47;3.70;99.90
23685;DHT22;12020;51.384;6.908;2023-02-15T05:14:13;3.80;99.90
23685;DHT22;12020;51.384;6.908;2023-02-15T05:16:39;3.80;99.90
23685;DHT22;12020;51.384;6.908;2023-02-15T05:19:04;3.80;99.90
23685;DHT22;12020;51.384;6.908;2023-02-15T05:21:31;3.80;99.90
23685;DHT22;12020;51.384;6.908;2023-02-15T05:23:57;3.80;99.90
23685;DHT22;12020;51.384;6.908;2023-02-15T05:26:24;3.90;99.90
23685;DHT22;12020;51.384;6.908;2023-02-15T05:29:09;3.80;99.90
23685;DHT22;12020;51.384;6.908;2023-02-15T05:31:35;3.90;99.90
23685;DHT22;12020;51.384;6.908;2023-02-15T05:34:01;3.90;99.90
23685;DHT22;12020;51.384;6.908;2023-02-15T05:36:27;3.90;99.90
23685;DHT22;12020;51.384;6.908;2023-02-15T05:38:54;3.80;99.90
23685;DHT22;12020;51.384;6.908;2023-02-15T05:41:19;3.80;99.90
23685;DHT22;12020;51.384;6.908;2023-02-15T05:43:45;3.80;99.90
23685;DHT22;12020;51.384;6.908;2023-02-15T05:46:12;3.70;99.90
23685;DHT22;12020;51.384;6.908;2023-02-15T05:48:37;3.70;99.90
23685;DHT22;12020;51.384;6.908;2023-02-15T05:51:06;3.60;99.90
23685;DHT22;12020;51.384;6.908;2023-02-15T05:53:34;3.60;99.90
23685;DHT22;12020;51.384;6.908;2023-02-15T05:56:00;3.60;99.90
23685;DHT22;12020;51.384;6.908;2023-02-15T05:58:30;3.60;99.90
23685;DHT22;12020;51.384;6.908;2023-02-15T06:00:55;3.50;99.90
23685;DHT22;12020;51.384;6.908;2023-02-15T06:03:22;3.50;99.90
23685;DHT22;12020;51.384;6.908;2023-02-15T06:05:48;3.50;99.90
23685;DHT22;12020;51.384;6.908;2023-02-15T06:08:14;3.60;99.90
23685;DHT22;12020;51.384;6.908;2023-02-15T06:10:39;3.60;99.90
23685;DHT22;12020;51.384;6.908;2023-02-15T06:13:06;3.60;99.90
23685;DHT22;12020;51.384;6.908;2023-02-15T06:15:32;3.60;99.90
23685;DHT22;12020;51.384;6.908;2023-02-15T06:17:58;3.60;99.90
23685;DHT22;12020;51.384;6.908;2023-02-15T06:20:24;3.70;99.90
23685;DHT22;12020;51.384;6.908;2023-02-15T06:22:49;3.70;99.90
23685;DHT22;12020;51.384;6.908;2023-02-15T06:25:15;3.80;99.90
23685;DHT22;12020;51.384;6.908;2023-02-15T06:27:41;3.80;99.90
23685;DHT22;12020;51.384;6.908;2023-02-15T06:30:09;3.80;99.90
23685;DHT22;12020;51.384;6.908;2023-02-15T06:32:36;3.80;99.90
23685;DHT22;12020;51.384;6.908;2023-02-15T06:35:02;3.80;99.90
23685;DHT22;12020;51.384;6.908;2023-02-15T06:37:28;3.80;99.90
23685;DHT22;12020;51.384;6.908;2023-02-15T06:39:54;3.80;99.90
23685;DHT22;12020;51.384;6.908;2023-02-15T06:42:21;3.80;99.90
23685;DHT22;12020;51.384;6.908;2023-02-15T06:44:46;3.80;99.90
23685;DHT22;12020;51.384;6.908;2023-02-15T06:47:12;3.70;99.90
23685;DHT22;12020;51.384;6.908;2023-02-15T06:49:38;3.70;99.90
23685;DHT22;12020;51.384;6.908;2023-02-15T06:52:04;3.70;99.90
23685;DHT22;12020;51.384;6.908;2023-02-15T06:54:30;3.60;99.90
23685;DHT22;12020;51.384;6.908;2023-02-15T06:56:57;3.70;99.90
23685;DHT22;12020;51.384;6.908;2023-02-15T06:59:23;3.70;99.90
23685;DHT22;12020;51.384;6.908;2023-02-15T07:01:48;3.70;99.90
23685;DHT22;12020;51.384;6.908;2023-02-15T07:04:17;3.70;99.90
23685;DHT22;12020;51.384;6.908;2023-02-15T07:06:42;3.90;99.90
23685;DHT22;12020;51.384;6.908;2023-02-15T07:09:08;3.90;99.90
23685;DHT22;12020;51.384;6.908;2023-02-15T07:11:34;3.90;99.90
23685;DHT22;12020;51.384;6.908;2023-02-15T07:14:18;3.90;99.90
23685;DHT22;12020;51.384;6.908;2023-02-15T07:16:43;3.90;99.90
23685;DHT22;12020;51.384;6.908;2023-02-15T07:19:09;3.90;99.90
23685;DHT22;12020;51.384;6.908;2023-02-15T07:21:36;4.00;99.90
23685;DHT22;12020;51.384;6.908;2023-02-15T07:24:02;3.90;99.90
23685;DHT22;12020;51.384;6.908;2023-02-15T07:26:28;3.90;99.90
23685;DHT22;12020;51.384;6.908;2023-02-15T07:28:54;3.90;99.90
23685;DHT22;12020;51.384;6.908;2023-02-15T07:31:19;3.90;99.90
23685;DHT22;12020;51.384;6.908;2023-02-15T07:33:45;3.90;99.90
23685;DHT22;12020;51.384;6.908;2023-02-15T07:36:11;4.00;99.90
23685;DHT22;12020;51.384;6.908;2023-02-15T07:38:39;4.00;99.90
23685;DHT22;12020;51.384;6.908;2023-02-15T07:41:10;4.10;99.90
23685;DHT22;12020;51.384;6.908;2023-02-15T07:43:39;4.10;99.90
23685;DHT22;12020;51.384;6.908;2023-02-15T07:46:07;4.20;99.90
23685;DHT22;12020;51.384;6.908;2023-02-15T07:48:33;4.20;99.90
23685;DHT22;12020;51.384;6.908;2023-02-15T07:51:05;4.30;99.90
23685;DHT22;12020;51.384;6.908;2023-02-15T07:53:31;4.30;99.90
23685;DHT22;12020;51.384;6.908;2023-02-15T07:56:01;4.40;99.90
23685;DHT22;12020;51.384;6.908;2023-02-15T07:58:27;4.40;99.90
23685;DHT22;12020;51.384;6.908;2023-02-15T08:01:11;4.50;99.90
23685;DHT22;12020;51.384;6.908;2023-02-15T08:03:37;4.50;99.90
23685;DHT22;12020;51.384;6.908;2023-02-15T08:06:03;4.50;99.90
23685;DHT22;12020;51.384;6.908;2023-02-15T08:08:29;4.60;99.90
23685;DHT22;12020;51.384;6.908;2023-02-15T08:10:59;4.60;99.90
23685;DHT22;12020;51.384;6.908;2023-02-15T08:13:45;4.70;99.90
23685;DHT22;12020;51.384;6.908;2023-02-15T08:16:30;4.70;99.90
23685;DHT22;12020;51.384;6.908;2023-02-15T08:18:57;4.80;99.90
23685;DHT22;12020;51.384;6.908;2023-02-15T08:21:26;4.90;99.90
23685;DHT22;12020;51.384;6.908;2023-02-15T08:23:52;4.90;99.90
23685;DHT22;12020;51.384;6.908;2023-02-15T08:26:18;5.00;99.90
23685;DHT22;12020;51.384;6.908;2023-02-15T08:28:45;5.00;99.90
23685;DHT22;12020;51.384;6.908;2023-02-15T08:31:13;5.10;99.90
23685;DHT22;12020;51.384;6.908;2023-02-15T08:33:40;5.10;99.90
23685;DHT22;12020;51.384;6.908;2023-02-15T08:36:15;5.10;99.90
23685;DHT22;12020;51.384;6.908;2023-02-15T08:38:41;5.20;99.90
23685;DHT22;12020;51.384;6.908;2023-02-15T08:41:17;5.20;99.90
23685;DHT22;12020;51.384;6.908;2023-02-15T08:43:49;5.30;99.90
23685;DHT22;12020;51.384;6.908;2023-02-15T08:46:17;5.40;99.90
23685;DHT22;12020;51.384;6.908;2023-02-15T08:48:43;5.40;99.90
23685;DHT22;12020;51.384;6.908;2023-02-15T08:51:24;5.50;99.90
23685;DHT22;12020;51.384;6.908;2023-02-15T08:53:52;5.70;99.90
23685;DHT22;12020;51.384;6.908;2023-02-15T08:56:21;5.70;99.90
23685;DHT22;12020;51.384;6.908;2023-02-15T08:58:48;5.90;99.90
23685;DHT22;12020;51.384;6.908;2023-02-15T09:01:18;6.00;99.90
23685;DHT22;12020;51.384;6.908;2023-02-15T09:03:50;6.10;99.90
23685;DHT22;12020;51.384;6.908;2023-02-15T09:06:19;6.20;99.90
23685;DHT22;12020;51.384;6.908;2023-02-15T09:08:45;6.40;99.90
23685;DHT22;12020;51.384;6.908;2023-02-15T09:11:14;6.50;99.90
23685;DHT22;12020;51.384;6.908;2023-02-15T09:13:42;6.70;99.90
23685;DHT22;12020;51.384;6.908;2023-02-15T09:16:09;6.80;99.90
23685;DHT22;12020;51.384;6.908;2023-02-15T09:18:39;7.00;99.90
23685;DHT22;12020;51.384;6.908;2023-02-15T09:21:16;7.10;99.90
23685;DHT22;12020;51.384;6.908;2023-02-15T09:23:43;7.20;99.90
23685;DHT22;12020;51.384;6.908;2023-02-15T09:26:14;7.40;99.90
23685;DHT22;12020;51.384;6.908;2023-02-15T09:28:40;7.60;99.90
23685;DHT22;12020;51.384;6.908;2023-02-15T09:31:17;7.70;99.90
23685;DHT22;12020;51.384;6.908;2023-02-15T09:33:44;7.90;99.90
23685;DHT22;12020;51.384;6.908;2023-02-15T09:36:24;8.10;99.90
23685;DHT22;12020;51.384;6.908;2023-02-15T09:39:14;8.30;99.90
23685;DHT22;12020;51.384;6.908;2023-02-15T09:46:59;8.90;99.90
23685;DHT22;12020;51.384;6.908;2023-02-15T09:55:55;9.60;99.90
23685;DHT22;12020;51.384;6.908;2023-02-15T10:01:40;10.00;99.90
23685;DHT22;12020;51.384;6.908;2023-02-15T10:13:03;10.70;99.90
23685;DHT22;12020;51.384;6.908;2023-02-15T10:21:58;11.20;99.90
23685;DHT22;12020;51.384;6.908;2023-02-15T10:27:06;11.40;99.90
23685;DHT22;12020;51.384;6.908;2023-02-15T10:32:29;11.60;99.90
23685;DHT22;12020;51.384;6.908;2023-02-15T10:35:10;11.60;99.90
23685;DHT22;12020;51.384;6.908;2023-02-15T10:37:52;11.70;99.90
23685;DHT22;12020;51.384;6.908;2023-02-15T10:52:06;11.70;99.90
23685;DHT22;12020;51.384;6.908;2023-02-15T10:55:00;11.80;99.90
23685;DHT22;12020;51.384;6.908;2023-02-15T11:08:20;12.00;99.90
23685;DHT22;12020;51.384;6.908;2023-02-15T11:10:52;12.10;99.90
23685;DHT22;12020;51.384;6.908;2023-02-15T11:13:22;12.00;99.90
23685;DHT22;12020;51.384;6.908;2023-02-15T11:15:55;11.90;99.90
23685;DHT22;12020;51.384;6.908;2023-02-15T11:18:39;11.90;99.90
23685;DHT22;12020;51.384;6.908;2023-02-15T11:21:17;11.90;99.90
23685;DHT22;12020;51.384;6.908;2023-02-15T11:23:49;12.00;99.90
23685;DHT22;12020;51.384;6.908;2023-02-15T11:29:13;12.00;99.90
23685;DHT22;12020;51.384;6.908;2023-02-15T11:31:46;12.00;99.90
23685;DHT22;12020;51.384;6.908;2023-02-15T11:34:31;12.00;99.90
23685;DHT22;12020;51.384;6.908;2023-02-15T11:37:05;12.00;99.90
23685;DHT22;12020;51.384;6.908;2023-02-15T11:39:33;12.00;99.90
23685;DHT22;12020;51.384;6.908;2023-02-15T11:42:11;12.00;99.90
23685;DHT22;12020;51.384;6.908;2023-02-15T11:44:52;12.00;99.90
23685;DHT22;12020;51.384;6.908;2023-02-15T11:47:20;12.00;99.90
23685;DHT22;12020;51.384;6.908;2023-02-15T11:49:46;12.00;99.90
23685;DHT22;12020;51.384;6.908;2023-02-15T11:52:14;12.00;99.90
23685;DHT22;12020;51.384;6.908;2023-02-15T11:54:45;12.00;99.90
23685;DHT22;12020;51.384;6.908;2023-02-15T11:57:32;12.00;99.90
23685;DHT22;12020;51.384;6.908;2023-02-15T12:00:10;12.00;99.90
23685;DHT22;12020;51.384;6.908;2023-02-15T12:02:44;12.00;99.90
23685;DHT22;12020;51.384;6.908;2023-02-15T12:05:17;12.10;99.90
23685;DHT22;12020;51.384;6.908;2023-02-15T12:07:49;12.20;99.90
23685;DHT22;12020;51.384;6.908;2023-02-15T12:10:31;12.30;99.90
23685;DHT22;12020;51.384;6.908;2023-02-15T12:15:36;12.30;99.90
23685;DHT22;12020;51.384;6.908;2023-02-15T12:18:02;12.30;99.90
23685;DHT22;12020;51.384;6.908;2023-02-15T12:20:32;12.20;99.90
23685;DHT22;12020;51.384;6.908;2023-02-15T12:23:04;12.20;99.90
23685;DHT22;12020;51.384;6.908;2023-02-15T12:25:52;12.20;99.90
23685;DHT22;12020;51.384;6.908;2023-02-15T12:28:41;12.20;99.90
23685;DHT22;12020;51.384;6.908;2023-02-15T12:31:50;12.20;99.90
23685;DHT22;12020;51.384;6.908;2023-02-15T12:34:32;12.20;99.90
23685;DHT22;12020;51.384;6.908;2023-02-15T12:37:09;12.20;99.90
23685;DHT22;12020;51.384;6.908;2023-02-15T12:39:35;12.20;99.90
23685;DHT22;12020;51.384;6.908;2023-02-15T12:42:15;12.30;99.90
23685;DHT22;12020;51.384;6.908;2023-02-15T12:44:57;12.40;99.90
23685;DHT22;12020;51.384;6.908;2023-02-15T12:47:24;12.40;99.90
23685;DHT22;12020;51.384;6.908;2023-02-15T12:50:25;12.50;99.90
23685;DHT22;12020;51.384;6.908;2023-02-15T12:56:06;12.60;99.90
23685;DHT22;12020;51.384;6.908;2023-02-15T12:58:38;12.60;99.90
23685;DHT22;12020;51.384;6.908;2023-02-15T13:01:17;12.60;99.90
23685;DHT22;12020;51.384;6.908;2023-02-15T13:04:06;12.60;99.90
23685;DHT22;12020;51.384;6.908;2023-02-15T13:06:47;12.70;99.90
23685;DHT22;12020;51.384;6.908;2023-02-15T13:12:11;12.70;99.90
23685;DHT22;12020;51.384;6.908;2023-02-15T13:14:44;12.70;99.90
23685;DHT22;12020;51.384;6.908;2023-02-15T13:17:13;12.80;99.90
23685;DHT22;12020;51.384;6.908;2023-02-15T13:19:55;12.80;99.90
23685;DHT22;12020;51.384;6.908;2023-02-15T13:22:31;12.80;99.90
23685;DHT22;12020;51.384;6.908;2023-02-15T13:25:03;12.90;99.90
23685;DHT22;12020;51.384;6.908;2023-02-15T13:27:36;12.90;99.90
23685;DHT22;12020;51.384;6.908;2023-02-15T13:32:54;13.00;99.90
23685;DHT22;12020;51.384;6.908;2023-02-15T13:35:21;13.00;99.90
23685;DHT22;12020;51.384;6.908;2023-02-15T13:38:19;13.00;99.90
23685;DHT22;12020;51.384;6.908;2023-02-15T13:40:55;13.00;99.90
23685;DHT22;12020;51.384;6.908;2023-02-15T13:44:03;13.00;99.90
23685;DHT22;12020;51.384;6.908;2023-02-15T13:52:26;13.00;99.90
23685;DHT22;12020;51.384;6.908;2023-02-15T13:58:08;13.10;99.90
23685;DHT22;12020;51.384;6.908;2023-02-15T14:00:56;13.10;99.90
23685;DHT22;12020;51.384;6.908;2023-02-15T14:03:55;13.10;99.90
23685;DHT22;12020;51.384;6.908;2023-02-15T14:19:53;13.20;99.90
23685;DHT22;12020;51.384;6.908;2023-02-15T14:22:31;13.20;99.90
23685;DHT22;12020;51.384;6.908;2023-02-15T14:30:31;13.20;99.90
23685;DHT22;12020;51.384;6.908;2023-02-15T14:33:04;13.20;99.90
23685;DHT22;12020;51.384;6.908;2023-02-15T14:35:31;13.10;99.90
23685;DHT22;12020;51.384;6.908;2023-02-15T14:41:16;13.00;99.90
23685;DHT22;12020;51.384;6.908;2023-02-15T14:49:17;13.00;99.90
23685;DHT22;12020;51.384;6.908;2023-02-15T15:02:18;12.90;99.90
23685;DHT22;12020;51.384;6.908;2023-02-15T15:05:04;12.90;99.90
23685;DHT22;12020;51.384;6.908;2023-02-15T15:19:09;12.70;99.90
23685;DHT22;12020;51.384;6.908;2023-02-15T15:21:51;12.70;99.90
23685;DHT22;12020;51.384;6.908;2023-02-15T15:27:37;12.70;99.90
23685;DHT22;12020;51.384;6.908;2023-02-15T15:32:59;12.70;99.90
23685;DHT22;12020;51.384;6.908;2023-02-15T15:49:46;12.50;99.90
23685;DHT22;12020;51.384;6.908;2023-02-15T15:52:18;12.50;99.90
23685;DHT22;12020;51.384;6.908;2023-02-15T15:54:50;12.50;99.90
23685;DHT22;12020;51.384;6.908;2023-02-15T15:57:35;12.40;99.90
23685;DHT22;12020;51.384;6.908;2023-02-15T16:00:04;12.40;99.90
23685;DHT22;12020;51.384;6.908;2023-02-15T16:02:50;12.30;99.90
23685;DHT22;12020;51.384;6.908;2023-02-15T16:05:16;12.30;99.90
23685;DHT22;12020;51.384;6.908;2023-02-15T16:07:42;12.20;99.90
23685;DHT22;12020;51.384;6.908;2023-02-15T16:10:26;12.20;99.90
23685;DHT22;12020;51.384;6.908;2023-02-15T16:12:52;12.20;99.90
23685;DHT22;12020;51.384;6.908;2023-02-15T16:15:33;12.10;99.90
23685;DHT22;12020;51.384;6.908;2023-02-15T16:18:00;12.10;99.90
23685;DHT22;12020;51.384;6.908;2023-02-15T16:20:27;12.10;99.90
23685;DHT22;12020;51.384;6.908;2023-02-15T16:28:49;11.90;99.90
23685;DHT22;12020;51.384;6.908;2023-02-15T16:31:16;11.80;99.90
23685;DHT22;12020;51.384;6.908;2023-02-15T16:33:43;11.70;99.90
23685;DHT22;12020;51.384;6.908;2023-02-15T16:36:27;11.70;99.90
23685;DHT22;12020;51.384;6.908;2023-02-15T16:41:29;11.50;99.90
23685;DHT22;12020;51.384;6.908;2023-02-15T16:44:02;11.40;99.90
23685;DHT22;12020;51.384;6.908;2023-02-15T16:46:32;11.40;99.90
23685;DHT22;12020;51.384;6.908;2023-02-15T16:49:04;11.50;99.90
23685;DHT22;12020;51.384;6.908;2023-02-15T16:51:34;11.60;99.90
23685;DHT22;12020;51.384;6.908;2023-02-15T16:54:08;11.50;99.90
23685;DHT22;12020;51.384;6.908;2023-02-15T16:56:43;11.40;99.90
23685;DHT22;12020;51.384;6.908;2023-02-15T16:59:41;11.30;99.90
23685;DHT22;12020;51.384;6.908;2023-02-15T17:02:10;11.20;99.90
23685;DHT22;12020;51.384;6.908;2023-02-15T17:04:37;11.50;99.90
23685;DHT22;12020;51.384;6.908;2023-02-15T17:07:18;11.90;99.90
23685;DHT22;12020;51.384;6.908;2023-02-15T17:09:55;12.30;99.90
23685;DHT22;12020;51.384;6.908;2023-02-15T17:17:50;12.00;99.90
23685;DHT22;12020;51.384;6.908;2023-02-15T17:20:17;11.70;99.90
23685;DHT22;12020;51.384;6.908;2023-02-15T17:22:44;11.50;99.90
23685;DHT22;12020;51.384;6.908;2023-02-15T17:25:19;11.30;99.90
23685;DHT22;12020;51.384;6.908;2023-02-15T17:27:51;11.20;99.90
23685;DHT22;12020;51.384;6.908;2023-02-15T17:30:28;11.00;99.90
23685;DHT22;12020;51.384;6.908;2023-02-15T17:32:59;10.90;99.90
23685;DHT22;12020;51.384;6.908;2023-02-15T17:35:28;10.80;99.90
23685;DHT22;12020;51.384;6.908;2023-02-15T17:38:06;10.70;99.90
23685;DHT22;12020;51.384;6.908;2023-02-15T17:40:34;10.70;99.90
23685;DHT22;12020;51.384;6.908;2023-02-15T17:43:00;10.60;99.90
23685;DHT22;12020;51.384;6.908;2023-02-15T17:45:34;10.50;99.90
23685;DHT22;12020;51.384;6.908;2023-02-15T17:48:03;10.50;99.90
23685;DHT22;12020;51.384;6.908;2023-02-15T17:50:29;10.40;99.90
23685;DHT22;12020;51.384;6.908;2023-02-15T17:52:58;10.30;99.90
23685;DHT22;12020;51.384;6.908;2023-02-15T17:55:26;10.30;99.90
23685;DHT22;12020;51.384;6.908;2023-02-15T17:58:21;10.20;99.90
23685;DHT22;12020;51.384;6.908;2023-02-15T18:00:50;10.20;99.90
23685;DHT22;12020;51.384;6.908;2023-02-15T18:03:47;10.20;99.90
23685;DHT22;12020;51.384;6.908;2023-02-15T18:06:33;10.20;99.90
23685;DHT22;12020;51.384;6.908;2023-02-15T18:09:19;10.10;99.90
23685;DHT22;12020;51.384;6.908;2023-02-15T18:12:21;10.00;99.90
23685;DHT22;12020;51.384;6.908;2023-02-15T18:14:48;10.00;99.90
23685;DHT22;12020;51.384;6.908;2023-02-15T18:17:15;9.90;99.90
23685;DHT22;12020;51.384;6.908;2023-02-15T18:19:43;9.90;99.90
23685;DHT22;12020;51.384;6.908;2023-02-15T18:22:16;9.90;99.90
23685;DHT22;12020;51.384;6.908;2023-02-15T18:24:44;9.80;99.90
23685;DHT22;12020;51.384;6.908;2023-02-15T18:27:12;9.80;99.90
23685;DHT22;12020;51.384;6.908;2023-02-15T18:29:37;9.80;99.90
23685;DHT22;12020;51.384;6.908;2023-02-15T18:32:07;9.70;99.90
23685;DHT22;12020;51.384;6.908;2023-02-15T18:34:35;9.70;99.90
23685;DHT22;12020;51.384;6.908;2023-02-15T18:37:03;9.70;99.90
23685;DHT22;12020;51.384;6.908;2023-02-15T18:39:37;9.70;99.90
23685;DHT22;12020;51.384;6.908;2023-02-15T18:42:18;9.60;99.90
23685;DHT22;12020;51.384;6.908;2023-02-15T18:44:44;9.60;99.90
23685;DHT22;12020;51.384;6.908;2023-02-15T18:47:10;9.60;99.90
23685;DHT22;12020;51.384;6.908;2023-02-15T18:49:36;9.60;99.90
23685;DHT22;12020;51.384;6.908;2023-02-15T18:52:02;9.50;99.90
23685;DHT22;12020;51.384;6.908;2023-02-15T18:54:27;9.50;99.90
23685;DHT22;12020;51.384;6.908;2023-02-15T18:56:57;9.40;99.90
23685;DHT22;12020;51.384;6.908;2023-02-15T18:59:26;9.40;99.90
23685;DHT22;12020;51.384;6.908;2023-02-15T19:01:52;9.40;99.90
23685;DHT22;12020;51.384;6.908;2023-02-15T19:04:18;9.40;99.90
23685;DHT22;12020;51.384;6.908;2023-02-15T19:06:46;9.30;99.90
23685;DHT22;12020;51.384;6.908;2023-02-15T19:09:19;9.30;99.90
23685;DHT22;12020;51.384;6.908;2023-02-15T19:11:49;9.20;99.90
23685;DHT22;12020;51.384;6.908;2023-02-15T19:14:28;9.20;99.90
23685;DHT22;12020;51.384;6.908;2023-02-15T19:16:54;9.20;99.90
23685;DHT22;12020;51.384;6.908;2023-02-15T19:19:21;9.10;99.90